createdAt,value
2023-05-05T00:01:11.583Z,67.05
2023-05-05T00:03:38.098Z,66.85
2023-05-05T00:06:05.524Z,66.81
2023-05-05T00:08:32.111Z,66.47
2023-05-05T00:10:58.663Z,66.74
2023-05-05T00:13:25.297Z,66.56
2023-05-05T00:15:53.547Z,66.59
2023-05-05T00:18:20.983Z,66.74
2023-05-05T00:20:48.125Z,67.11
2023-05-05T00:23:15.991Z,66.62
2023-05-05T00:25:42.550Z,67.13
2023-05-05T00:28:09.037Z,66.97
2023-05-05T00:30:37.218Z,67.21
2023-05-05T00:33:03.860Z,66.67
2023-05-05T00:35:30.528Z,66.91
2023-05-05T00:37:57.037Z,66.95
2023-05-05T00:40:25.042Z,67.01
2023-05-05T00:42:52.157Z,67.07
2023-05-05T00:45:20.287Z,66.66
2023-05-05T00:47:51.139Z,67.21
2023-05-05T00:50:26.358Z,67.13
2023-05-05T00:52:54.520Z,66.81
2023-05-05T00:55:21.583Z,66.95
2023-05-05T00:57:49.480Z,67.51
2023-05-05T01:00:16.716Z,67.28
2023-05-05T01:02:44.039Z,66.99
2023-05-05T01:05:11.474Z,67.26
2023-05-05T01:07:43.696Z,66.88
2023-05-05T01:10:23.741Z,67.02
2023-05-05T01:12:53.131Z,67.04
2023-05-05T01:15:33.404Z,67.06
2023-05-05T01:18:24.223Z,67.17
2023-05-05T01:20:57.591Z,66.83
2023-05-05T01:23:43.145Z,67.16
2023-05-05T01:26:24.429Z,67.47
2023-05-05T01:29:07.715Z,67.63
2023-05-05T01:31:43.859Z,67.25
2023-05-05T01:34:16.109Z,67.57
2023-05-05T01:36:49.365Z,67.79
2023-05-05T01:39:18.361Z,67.67
2023-05-05T01:41:51.016Z,67.53
2023-05-05T01:44:19.834Z,67.91
2023-05-05T01:46:48.752Z,67.74
2023-05-05T01:49:16.281Z,67.94
2023-05-05T01:51:45.774Z,68.01
2023-05-05T01:54:15.105Z,68.19
2023-05-05T01:56:43.246Z,67.76
2023-05-05T01:59:10.395Z,68.11
2023-05-05T02:01:41.300Z,67.88
2023-05-05T02:04:09.760Z,68.27
2023-05-05T02:06:39.194Z,68.29
2023-05-05T02:09:08.276Z,68.29
2023-05-05T02:11:34.836Z,68.47
2023-05-05T02:14:02.257Z,68.62
2023-05-05T02:16:31.039Z,68.58
2023-05-05T02:19:01.156Z,68.70
2023-05-05T02:21:28.515Z,69.07
2023-05-05T02:23:55.601Z,69.04
2023-05-05T02:26:24.113Z,69.21
2023-05-05T02:29:03.886Z,68.81
2023-05-05T02:31:33.048Z,69.31
2023-05-05T02:34:01.954Z,69.08
2023-05-05T02:36:32.485Z,69.30
2023-05-05T02:39:07.194Z,69.86
2023-05-05T02:41:38.070Z,69.17
2023-05-05T02:44:06.631Z,69.40
2023-05-05T02:46:33.614Z,69.91
2023-05-05T02:49:00.219Z,70.00
2023-05-05T02:51:27.597Z,70.07
2023-05-05T02:53:54.418Z,70.48
2023-05-05T02:56:48.881Z,70.15
2023-05-05T02:59:19.414Z,70.58
2023-05-05T03:02:08.070Z,70.89
2023-05-05T03:04:46.959Z,70.58
2023-05-05T03:07:21.907Z,70.91
2023-05-05T03:10:09.201Z,71.11
2023-05-05T03:13:01.577Z,71.17
2023-05-05T03:15:34.200Z,71.29
2023-05-05T03:18:03.070Z,71.57
2023-05-05T03:20:30.398Z,71.43
2023-05-05T03:22:57.146Z,71.12
2023-05-05T03:25:41.448Z,71.84
2023-05-05T03:28:07.912Z,71.52
2023-05-05T03:30:34.676Z,71.59
2023-05-05T03:33:01.404Z,71.56
2023-05-05T03:35:28.280Z,71.75
2023-05-05T03:37:55.676Z,72.03
2023-05-05T03:40:36.358Z,71.92
2023-05-05T03:43:09.864Z,71.95
2023-05-05T03:45:36.368Z,72.41
2023-05-05T03:48:03.059Z,72.43
2023-05-05T03:50:29.583Z,72.51
2023-05-05T03:52:56.127Z,72.34
2023-05-05T03:55:22.700Z,72.89
2023-05-05T03:57:49.185Z,72.43
2023-05-05T04:00:16.910Z,72.51
2023-05-05T04:02:43.535Z,72.60
2023-05-05T04:05:10.205Z,72.58
2023-05-05T04:07:36.683Z,72.63
2023-05-05T04:10:03.741Z,72.87
2023-05-05T04:12:30.295Z,73.06
2023-05-05T04:14:56.877Z,72.63
2023-05-05T04:17:23.364Z,73.02
2023-05-05T04:19:49.820Z,72.62
2023-05-05T04:22:16.647Z,72.96
2023-05-05T04:24:43.127Z,72.92
2023-05-05T04:27:09.674Z,72.76
2023-05-05T04:29:36.149Z,73.08
2023-05-05T04:32:02.636Z,72.91
2023-05-05T04:34:30.453Z,72.32
2023-05-05T04:36:57.113Z,72.61
2023-05-05T04:39:23.574Z,72.60
2023-05-05T04:41:50.061Z,72.10
2023-05-05T04:44:17.240Z,72.17
2023-05-05T04:46:44.798Z,72.03
2023-05-05T04:49:11.435Z,71.08
2023-05-05T04:51:41.454Z,71.96
2023-05-05T04:54:08.321Z,71.41
2023-05-05T04:56:34.797Z,71.52
2023-05-05T04:59:01.298Z,71.38
2023-05-05T05:01:27.837Z,70.98
2023-05-05T05:03:54.400Z,71.23
2023-05-05T05:06:21.022Z,70.72
2023-05-05T05:08:47.560Z,70.62
2023-05-05T05:11:14.087Z,70.26
2023-05-05T05:13:41.536Z,70.73
2023-05-05T05:16:08.142Z,70.35
2023-05-05T05:18:34.649Z,70.37
2023-05-05T05:21:01.363Z,70.42
2023-05-05T05:23:27.844Z,70.48
2023-05-05T05:25:54.529Z,69.98
2023-05-05T05:28:21.041Z,70.09
2023-05-05T05:30:47.712Z,69.23
2023-05-05T05:33:14.510Z,68.91
2023-05-05T05:35:41.276Z,68.88
2023-05-05T05:38:07.943Z,68.32
2023-05-05T05:40:34.437Z,67.57
2023-05-05T05:43:01.052Z,67.39
2023-05-05T05:45:27.555Z,67.82
2023-05-05T05:47:54.184Z,67.11
2023-05-05T05:50:21.405Z,67.13
2023-05-05T05:52:47.921Z,67.40
2023-05-05T05:55:14.393Z,67.39
2023-05-05T05:57:40.867Z,67.89
2023-05-05T06:00:08.126Z,67.63
2023-05-05T06:02:34.919Z,68.17
2023-05-05T06:05:01.476Z,67.89
2023-05-05T06:07:28.033Z,67.78
2023-05-05T06:09:54.529Z,67.26
2023-05-05T06:12:21.065Z,67.53
2023-05-05T06:14:47.545Z,68.13
2023-05-05T06:17:14.007Z,67.60
2023-05-05T06:19:41.012Z,68.16
2023-05-05T06:22:07.483Z,67.25
2023-05-05T06:24:34.014Z,67.11
2023-05-05T06:27:00.719Z,66.61
2023-05-05T06:29:28.022Z,65.51
2023-05-05T06:31:55.066Z,64.60
2023-05-05T06:34:21.585Z,64.61
2023-05-05T06:36:48.204Z,64.21
2023-05-05T06:39:15.902Z,64.04
2023-05-05T06:41:42.779Z,63.97
2023-05-05T06:44:10.540Z,64.11
2023-05-05T06:46:37.179Z,63.28
2023-05-05T06:49:03.763Z,63.95
2023-05-05T06:51:31.237Z,62.99
2023-05-05T06:53:57.751Z,63.26
2023-05-05T06:56:24.220Z,63.56
2023-05-05T06:58:50.704Z,63.41
2023-05-05T07:01:17.259Z,63.58
2023-05-05T07:03:44.715Z,64.17
2023-05-05T07:06:11.277Z,64.39
2023-05-05T07:08:37.767Z,64.53
2023-05-05T07:11:04.299Z,64.47
2023-05-05T07:13:30.800Z,64.40
2023-05-05T07:15:57.412Z,63.87
2023-05-05T07:18:23.926Z,64.06
2023-05-05T07:20:50.413Z,64.01
2023-05-05T07:23:17.061Z,64.17
2023-05-05T07:25:43.907Z,64.52
2023-05-05T07:28:10.878Z,64.45
2023-05-05T07:30:37.344Z,64.65
2023-05-05T07:33:03.984Z,64.44
2023-05-05T07:35:30.915Z,64.41
2023-05-05T07:37:57.797Z,64.69
2023-05-05T07:40:24.633Z,64.67
2023-05-05T07:42:51.747Z,64.70
2023-05-05T07:45:18.615Z,64.70
2023-05-05T07:47:45.432Z,64.65
2023-05-05T07:50:12.286Z,65.08
2023-05-05T07:55:08.761Z,65.09
2023-05-05T07:57:35.468Z,64.69
2023-05-05T08:00:02.350Z,64.54
2023-05-05T08:02:29.170Z,64.56
2023-05-05T08:04:55.904Z,64.57
2023-05-05T08:07:22.941Z,63.65
2023-05-05T08:09:49.614Z,64.01
2023-05-05T08:12:18.965Z,64.06
2023-05-05T08:14:45.724Z,62.76
2023-05-05T08:17:12.190Z,62.41
2023-05-05T08:19:38.796Z,62.49
2023-05-05T08:22:05.278Z,61.44
2023-05-05T08:24:31.736Z,59.89
2023-05-05T08:26:58.323Z,59.73
2023-05-05T08:29:24.816Z,58.75
2023-05-05T08:31:51.694Z,60.09
2023-05-05T08:34:18.285Z,59.63
2023-05-05T08:36:44.788Z,59.29
2023-05-05T08:39:11.531Z,59.20
2023-05-05T08:41:38.009Z,57.87
2023-05-05T08:44:04.548Z,56.83
2023-05-05T08:46:31.401Z,56.43
2023-05-05T08:48:58.759Z,55.31
2023-05-05T08:51:28.428Z,55.08
2023-05-05T08:53:57.869Z,56.58
2023-05-05T08:56:38.804Z,55.87
2023-05-05T08:59:05.371Z,55.69
2023-05-05T09:01:33.140Z,55.42
2023-05-05T09:03:59.997Z,55.05
2023-05-05T09:06:27.414Z,55.23
2023-05-05T09:08:54.095Z,55.57
2023-05-05T09:11:21.569Z,54.70
2023-05-05T09:13:48.344Z,54.46
2023-05-05T09:16:14.947Z,53.87
2023-05-05T09:18:42.601Z,53.16
2023-05-05T09:21:24.585Z,52.49
2023-05-05T09:24:08.594Z,53.00
2023-05-05T09:26:37.929Z,52.86
2023-05-05T09:29:05.804Z,53.10
2023-05-05T09:31:33.975Z,52.94
2023-05-05T09:34:00.916Z,52.24
2023-05-05T09:36:43.305Z,53.23
2023-05-05T09:39:10.094Z,53.22
2023-05-05T09:41:37.904Z,52.89
2023-05-05T09:44:04.574Z,52.38
2023-05-05T09:46:31.331Z,51.92
2023-05-05T09:49:12.326Z,52.13
2023-05-05T09:51:39.059Z,52.42
2023-05-05T09:54:05.542Z,52.64
2023-05-05T09:56:41.182Z,53.30
2023-05-05T09:59:08.909Z,53.03
2023-05-05T10:01:35.448Z,53.00
2023-05-05T10:04:02.200Z,53.53
2023-05-05T10:06:44.218Z,52.09
2023-05-05T10:09:11.000Z,52.75
2023-05-05T10:11:40.418Z,52.89
2023-05-05T10:14:07.840Z,52.14
2023-05-05T10:16:36.009Z,52.31
2023-05-05T10:19:04.168Z,52.65
2023-05-05T10:21:37.432Z,52.76
2023-05-05T10:24:11.682Z,52.32
2023-05-05T10:26:41.460Z,51.29
2023-05-05T10:29:23.300Z,51.09
2023-05-05T10:31:52.544Z,50.34
2023-05-05T10:34:40.645Z,50.57
2023-05-05T10:37:07.578Z,50.95
2023-05-05T10:39:37.742Z,50.22
2023-05-05T10:42:04.763Z,49.82
2023-05-05T10:44:34.785Z,49.89
2023-05-05T10:47:01.976Z,49.60
2023-05-05T10:49:54.925Z,50.07
2023-05-05T10:52:30.398Z,49.33
2023-05-05T10:55:12.842Z,48.57
2023-05-05T10:57:44.261Z,49.41
2023-05-05T11:00:36.832Z,49.72
2023-05-05T11:03:18.513Z,49.82
2023-05-05T11:06:03.810Z,49.75
2023-05-05T11:08:32.581Z,49.99
2023-05-05T11:10:59.821Z,50.08
2023-05-05T11:13:27.129Z,51.64
2023-05-05T11:15:55.975Z,51.41
2023-05-05T11:18:36.141Z,51.56
2023-05-05T11:21:15.655Z,52.07
2023-05-05T11:23:47.030Z,51.77
2023-05-05T11:26:15.261Z,51.50
2023-05-05T11:28:56.679Z,51.68
2023-05-05T11:31:23.248Z,51.77
2023-05-05T11:33:49.865Z,51.09
2023-05-05T11:36:18.411Z,51.53
2023-05-05T11:39:09.120Z,52.46
2023-05-05T11:42:25.513Z,51.68
2023-05-05T11:44:52.789Z,51.72
2023-05-05T11:47:19.190Z,51.86
2023-05-05T11:49:45.806Z,51.82
2023-05-05T11:52:14.571Z,51.66
2023-05-05T11:54:50.021Z,51.19
2023-05-05T11:57:21.048Z,50.39
2023-05-05T11:59:55.198Z,50.00
2023-05-05T12:02:22.767Z,50.29
2023-05-05T12:04:49.767Z,48.93
2023-05-05T12:07:17.822Z,47.86
2023-05-05T12:09:45.950Z,47.91
2023-05-05T12:12:13.801Z,47.70
2023-05-05T12:14:54.762Z,48.07
2023-05-05T12:17:25.659Z,47.69
2023-05-05T12:19:57.604Z,47.79
2023-05-05T12:22:25.681Z,46.80
2023-05-05T12:24:57.234Z,47.08
2023-05-05T12:27:24.687Z,47.23
2023-05-05T12:29:51.905Z,47.20
2023-05-05T12:32:21.031Z,47.52
2023-05-05T12:34:48.511Z,47.28
2023-05-05T12:37:16.811Z,47.61
2023-05-05T12:39:43.281Z,47.88
2023-05-05T12:42:09.869Z,47.70
2023-05-05T12:44:40.084Z,47.89
2023-05-05T12:47:07.078Z,46.92
2023-05-05T12:49:50.087Z,45.61
2023-05-05T12:52:16.910Z,46.58
2023-05-05T12:54:57.061Z,45.27
2023-05-05T12:57:23.961Z,45.98
2023-05-05T12:59:51.629Z,44.99
2023-05-05T13:02:18.953Z,45.79
2023-05-05T13:04:53.338Z,45.14
2023-05-05T13:07:21.771Z,45.26
2023-05-05T13:09:49.798Z,45.66
2023-05-05T13:12:21.065Z,44.56
2023-05-05T13:14:48.478Z,45.15
2023-05-05T13:17:15.234Z,45.45
2023-05-05T13:19:42.692Z,45.31
2023-05-05T13:22:13.001Z,45.03
2023-05-05T13:24:50.928Z,44.94
2023-05-05T13:27:19.030Z,45.24
2023-05-05T13:29:45.892Z,45.04
2023-05-05T13:32:12.513Z,45.39
2023-05-05T13:34:39.266Z,45.09
2023-05-05T13:37:06.153Z,45.67
2023-05-05T13:39:32.680Z,45.74
2023-05-05T13:41:59.215Z,46.13
2023-05-05T13:44:25.739Z,45.99
2023-05-05T13:46:52.453Z,45.21
2023-05-05T13:49:20.024Z,45.26
2023-05-05T13:51:46.909Z,45.34
2023-05-05T13:54:13.826Z,45.36
2023-05-05T13:56:40.660Z,44.84
2023-05-05T13:59:07.300Z,45.03
2023-05-05T14:01:33.873Z,45.11
2023-05-05T14:04:03.672Z,44.95
2023-05-05T14:06:32.567Z,45.62
2023-05-05T14:08:59.195Z,45.62
2023-05-05T14:11:25.692Z,45.76
2023-05-05T14:13:52.699Z,46.27
2023-05-05T14:16:19.226Z,45.79
2023-05-05T14:18:45.767Z,46.14
2023-05-05T14:21:12.263Z,46.10
2023-05-05T14:23:38.779Z,46.46
2023-05-05T14:26:05.360Z,47.29
2023-05-05T14:28:31.908Z,47.73
2023-05-05T14:30:58.433Z,48.95
2023-05-05T14:33:24.983Z,49.79
2023-05-05T14:35:51.976Z,51.37
2023-05-05T14:38:18.478Z,51.54
2023-05-05T14:40:45.006Z,52.36
2023-05-05T14:43:11.501Z,54.09
2023-05-05T14:45:38.073Z,54.54
2023-05-05T14:48:04.613Z,55.60
2023-05-05T14:50:31.220Z,54.84
2023-05-05T14:52:57.754Z,55.80
2023-05-05T14:55:24.973Z,55.27
2023-05-05T14:57:51.887Z,55.21
2023-05-05T15:00:18.730Z,55.36
2023-05-05T15:02:45.400Z,54.63
2023-05-05T15:05:12.313Z,54.73
2023-05-05T15:07:39.975Z,54.21
2023-05-05T15:10:07.559Z,54.96
2023-05-05T15:12:34.295Z,54.88
2023-05-05T15:15:00.851Z,54.95
2023-05-05T15:17:27.461Z,55.28
2023-05-05T15:19:54.148Z,54.76
2023-05-05T15:22:20.913Z,54.77
2023-05-05T15:24:47.608Z,54.80
2023-05-05T15:27:14.385Z,55.10
2023-05-05T15:29:41.028Z,55.07
2023-05-05T15:32:07.793Z,55.68
2023-05-05T15:34:34.328Z,55.74
2023-05-05T15:37:01.061Z,55.87
2023-05-05T15:39:27.570Z,55.93
2023-05-05T15:41:54.091Z,56.60
2023-05-05T15:44:20.648Z,56.25
2023-05-05T15:46:49.737Z,56.66
2023-05-05T15:49:16.921Z,56.63
2023-05-05T15:51:43.558Z,56.77
2023-05-05T15:54:11.044Z,56.90
2023-05-05T15:56:37.678Z,57.02
2023-05-05T15:59:04.196Z,57.28
2023-05-05T16:01:30.818Z,57.25
2023-05-05T16:03:57.821Z,57.56
2023-05-05T16:06:24.412Z,57.49
2023-05-05T16:08:51.771Z,57.75
2023-05-05T16:11:19.964Z,57.58
2023-05-05T16:13:47.644Z,57.63
2023-05-05T16:16:14.207Z,57.69
2023-05-05T16:18:40.772Z,57.81
2023-05-05T16:21:07.232Z,58.04
2023-05-05T16:23:33.734Z,57.76
2023-05-05T16:26:00.210Z,57.94
2023-05-05T16:28:26.959Z,58.06
2023-05-05T16:30:53.433Z,58.09
2023-05-05T16:33:19.900Z,58.12
2023-05-05T16:35:46.442Z,58.15
2023-05-05T16:38:13.411Z,58.55
2023-05-05T16:40:40.244Z,58.68
2023-05-05T16:43:06.778Z,58.28
2023-05-05T16:45:33.264Z,58.24
2023-05-05T16:47:59.832Z,58.72
2023-05-05T16:50:26.757Z,58.73
2023-05-05T16:52:53.241Z,58.82
2023-05-05T16:55:19.853Z,59.02
2023-05-05T16:57:47.785Z,58.67
2023-05-05T17:00:14.622Z,59.14
2023-05-05T17:02:41.174Z,58.96
2023-05-05T17:05:08.172Z,58.82
2023-05-05T17:07:35.074Z,58.96
2023-05-05T17:10:01.639Z,59.25
2023-05-05T17:12:28.342Z,59.15
2023-05-05T17:14:54.886Z,58.99
2023-05-05T17:17:21.421Z,59.22
2023-05-05T17:19:47.902Z,59.17
2023-05-05T17:22:14.394Z,58.80
2023-05-05T17:24:40.955Z,58.69
2023-05-05T17:27:07.498Z,59.12
2023-05-05T17:29:40.176Z,59.28
2023-05-05T17:32:07.768Z,58.80
2023-05-05T17:34:34.645Z,58.92
2023-05-05T17:37:01.858Z,59.29
2023-05-05T17:39:28.859Z,59.38
2023-05-05T17:41:55.671Z,59.18
2023-05-05T17:44:22.242Z,59.35
2023-05-05T17:46:48.885Z,59.75
2023-05-05T17:49:16.237Z,60.41
2023-05-05T17:51:42.685Z,61.03
2023-05-05T17:54:09.336Z,61.43
2023-05-05T17:56:36.713Z,62.29
2023-05-05T17:59:03.261Z,62.98
2023-05-05T18:01:29.857Z,63.77
2023-05-05T18:03:57.445Z,64.62
2023-05-05T18:06:23.996Z,65.10
2023-05-05T18:08:50.482Z,65.45
2023-05-05T18:11:17.126Z,64.92
2023-05-05T18:13:43.622Z,65.56
2023-05-05T18:16:10.282Z,66.71
2023-05-05T18:18:36.900Z,68.20
2023-05-05T18:21:03.479Z,67.90
2023-05-05T18:23:29.996Z,68.82
2023-05-05T18:25:56.536Z,69.23
2023-05-05T18:28:23.178Z,70.18
2023-05-05T18:30:49.691Z,71.42
2023-05-05T18:33:16.195Z,71.98
2023-05-05T18:35:42.704Z,73.13
2023-05-05T18:38:09.220Z,73.64
2023-05-05T18:40:35.710Z,73.95
2023-05-05T18:43:02.279Z,73.54
2023-05-05T18:45:28.848Z,73.30
2023-05-05T18:47:56.313Z,73.77
2023-05-05T18:50:23.088Z,73.79
2023-05-05T18:52:49.557Z,73.76
2023-05-05T18:55:16.058Z,74.66
2023-05-05T18:57:42.665Z,74.41
2023-05-05T19:00:10.085Z,74.53
2023-05-05T19:02:36.890Z,75.00
2023-05-05T19:05:03.770Z,75.37
2023-05-05T19:07:35.315Z,75.53
2023-05-05T19:10:04.479Z,75.35
2023-05-05T19:12:31.054Z,75.52
2023-05-05T19:14:57.861Z,75.36
2023-05-05T19:17:25.435Z,75.42
2023-05-05T19:19:52.175Z,75.82
2023-05-05T19:22:20.478Z,76.44
2023-05-05T19:24:47.052Z,77.29
2023-05-05T19:27:16.415Z,78.01
2023-05-05T19:29:43.566Z,78.72
2023-05-05T19:32:10.149Z,79.00
2023-05-05T19:34:36.903Z,79.25
2023-05-05T19:37:03.414Z,79.88
2023-05-05T19:39:30.029Z,80.66
2023-05-05T19:41:56.718Z,80.32
2023-05-05T19:44:23.756Z,80.25
2023-05-05T19:46:51.760Z,81.20
2023-05-05T19:49:18.465Z,81.01
2023-05-05T19:51:47.474Z,81.88
2023-05-05T19:54:14.175Z,82.86
2023-05-05T19:56:40.872Z,82.40
2023-05-05T19:59:07.519Z,83.04
2023-05-05T20:01:34.931Z,82.92
2023-05-05T20:04:03.121Z,82.53
2023-05-05T20:06:29.803Z,82.65
2023-05-05T20:08:56.502Z,82.26
2023-05-05T20:11:23.258Z,82.31
2023-05-05T20:13:50.728Z,83.43
2023-05-05T20:16:17.852Z,83.57
2023-05-05T20:18:44.585Z,83.36
2023-05-05T20:21:11.510Z,83.09
2023-05-05T20:23:38.228Z,83.11
2023-05-05T20:26:05.007Z,83.39
2023-05-05T20:28:31.828Z,83.30
2023-05-05T20:31:00.397Z,83.44
2023-05-05T20:33:28.680Z,83.43
2023-05-05T20:35:55.432Z,83.53
2023-05-05T20:38:22.109Z,84.08
2023-05-05T20:40:49.972Z,83.76
2023-05-05T20:43:16.644Z,83.98
2023-05-05T20:45:43.415Z,84.37
2023-05-05T20:48:11.314Z,84.16
2023-05-05T20:50:38.669Z,83.56
2023-05-05T20:53:07.917Z,84.07
2023-05-05T20:55:34.888Z,84.02
2023-05-05T20:58:01.675Z,83.93
2023-05-05T21:00:28.364Z,84.22
2023-05-05T21:02:56.775Z,84.62
2023-05-05T21:05:24.145Z,84.62
2023-05-05T21:07:53.598Z,84.84
2023-05-05T21:10:20.397Z,84.00
2023-05-05T21:12:47.156Z,83.99
2023-05-05T21:15:13.889Z,83.91
2023-05-05T21:17:40.773Z,84.66
2023-05-05T21:20:08.613Z,84.48
2023-05-05T21:22:35.502Z,83.61
2023-05-05T21:25:12.303Z,83.46
2023-05-05T21:27:39.052Z,83.49
2023-05-05T21:30:08.625Z,83.62
2023-05-05T21:32:39.105Z,83.93
2023-05-05T21:35:07.824Z,84.10
2023-05-05T21:37:36.281Z,83.52
2023-05-05T21:40:03.079Z,83.37
2023-05-05T21:42:30.926Z,84.16
2023-05-05T21:44:57.641Z,84.15
2023-05-05T21:47:24.354Z,83.58
2023-05-05T21:49:51.014Z,84.60
2023-05-05T21:52:17.712Z,84.07
2023-05-05T21:54:44.681Z,84.47
2023-05-05T21:57:11.375Z,84.56
2023-05-05T21:59:38.053Z,84.12
2023-05-05T22:02:04.738Z,84.42
2023-05-05T22:04:31.407Z,84.08
2023-05-05T22:06:58.217Z,84.67
2023-05-05T22:09:24.911Z,84.91
2023-05-05T22:11:51.643Z,84.70
2023-05-05T22:14:18.525Z,84.48
2023-05-05T22:16:45.413Z,85.38
2023-05-05T22:19:12.136Z,85.08
2023-05-05T22:21:39.014Z,85.33
2023-05-05T22:24:07.072Z,85.15
2023-05-05T22:26:34.055Z,84.97
2023-05-05T22:29:00.950Z,85.52
2023-05-05T22:31:29.236Z,85.33
2023-05-05T22:33:56.048Z,85.26
2023-05-05T22:36:22.905Z,85.21
2023-05-05T22:38:49.795Z,85.20
2023-05-05T22:41:16.473Z,85.18
2023-05-05T22:43:43.161Z,84.97
2023-05-05T22:46:10.150Z,85.10
2023-05-05T22:48:36.871Z,84.85
2023-05-05T22:51:03.691Z,85.41
2023-05-05T22:53:30.718Z,84.49
2023-05-05T22:55:58.443Z,85.15
2023-05-05T22:58:25.653Z,84.71
2023-05-05T23:00:52.209Z,85.29
2023-05-05T23:03:18.725Z,85.58
2023-05-05T23:05:45.225Z,85.00
2023-05-05T23:08:11.689Z,84.83
2023-05-05T23:10:38.180Z,84.87
2023-05-05T23:13:04.727Z,85.50
2023-05-05T23:15:31.400Z,85.23
2023-05-05T23:17:57.941Z,85.35
2023-05-05T23:20:24.430Z,86.02
2023-05-05T23:22:50.883Z,85.60
2023-05-05T23:25:17.560Z,86.11
2023-05-05T23:27:44.102Z,86.19
2023-05-05T23:30:11.094Z,86.65
2023-05-05T23:32:37.817Z,86.76
2023-05-05T23:35:04.809Z,86.72
2023-05-05T23:37:31.467Z,87.10
2023-05-05T23:39:58.105Z,87.20
2023-05-05T23:42:24.623Z,87.37
2023-05-05T23:44:51.207Z,87.23
2023-05-05T23:47:17.840Z,86.90
2023-05-05T23:49:44.514Z,86.55
2023-05-05T23:52:11.192Z,87.04
2023-05-05T23:54:37.659Z,86.86
2023-05-05T23:57:04.188Z,86.61
2023-05-05T23:59:30.691Z,86.77
